Karvina, Czech Republic
Current Conditions -  °F | °C
As of 12:00 AM on Friday 24 Oct 2014 (Local Time) from LKMT Reporting Station
Overcast Overcast  
Wind Chill: 31°   Ceiling: 600
Heat Index: 39°   Visibility: 4mi
Dew Point: 37°   Wind: 15mph
Humidity: 93%   Direction: 30°NNE
Pressure: 30.15"   Gusts: NA
Location:  49.86°N, 18.54°E
Report Text: LKMT 232200Z 03013KT 6000 OVC006 04/03 Q1021 NOSIG
Loading
Personal Weather Stations






























Interactive Weather Map
Tropical Storm Tracking
New forecast layout! Learn more

10-Day Weather Forecast

Advertisements
Track Severe Weather on mobile